createdAt,value
2022-12-14T00:02:41.883Z,39.72
2022-12-14T00:07:49.178Z,44.95
2022-12-14T00:12:53.173Z,37.60
2022-12-14T00:17:57.335Z,97.13
2022-12-14T00:23:02.654Z,38.70
2022-12-14T00:28:06.766Z,33.25
2022-12-14T00:33:10.639Z,35.70
2022-12-14T00:38:15.936Z,100.05
2022-12-14T00:43:19.890Z,54.72
2022-12-14T00:48:25.985Z,37.80
2022-12-14T00:53:32.227Z,32.13
2022-12-14T00:58:36.259Z,40.22
2022-12-14T01:03:40.280Z,42.67
2022-12-14T01:08:45.952Z,36.67
2022-12-14T01:13:49.940Z,36.22
2022-12-14T01:18:54.281Z,41.42
2022-12-14T01:24:01.428Z,38.65
2022-12-14T01:29:06.384Z,40.05
2022-12-14T01:34:11.073Z,35.78
2022-12-14T01:39:17.379Z,38.05
2022-12-14T01:44:54.315Z,39.70
2022-12-14T01:50:04.390Z,39.80
2022-12-14T01:55:14.501Z,44.45
2022-12-14T02:00:19.310Z,42.45
2022-12-14T02:05:26.222Z,43.63
2022-12-14T02:10:33.573Z,40.08
2022-12-14T02:15:40.197Z,39.40
2022-12-14T02:20:53.056Z,42.47
2022-12-14T02:26:35.699Z,67.10
2022-12-14T02:31:51.600Z,69.60
2022-12-14T02:42:09.855Z,56.05
2022-12-14T02:47:21.838Z,43.78
2022-12-14T02:52:38.329Z,46.83
2022-12-14T02:57:47.681Z,48.88
2022-12-14T03:02:54.266Z,49.75
2022-12-14T03:08:01.182Z,47.40
2022-12-14T03:13:12.752Z,48.53
2022-12-14T03:18:21.076Z,44.53
2022-12-14T03:23:31.018Z,58.60
2022-12-14T03:28:45.761Z,51.53
2022-12-14T03:33:55.161Z,59.20
2022-12-14T03:39:01.950Z,60.58
2022-12-14T03:44:20.144Z,68.70
2022-12-14T03:49:44.386Z,46.70
2022-12-14T03:54:54.947Z,60.22
2022-12-14T04:00:04.925Z,64.80
2022-12-14T04:05:24.586Z,49.13
2022-12-14T04:10:50.107Z,45.65
2022-12-14T04:16:15.080Z,40.40
2022-12-14T04:21:29.683Z,54.97
2022-12-14T04:26:41.331Z,45.90
2022-12-14T04:31:52.038Z,41.25
2022-12-14T04:37:01.274Z,49.47
2022-12-14T04:42:08.701Z,42.63
2022-12-14T04:47:17.726Z,43.45
2022-12-14T04:52:27.867Z,36.90
2022-12-14T04:57:37.542Z,51.67
2022-12-14T05:02:58.185Z,39.08
2022-12-14T05:08:12.229Z,45.00
2022-12-14T05:13:19.956Z,48.38
2022-12-14T05:18:24.353Z,61.08
2022-12-14T05:23:30.222Z,54.00
2022-12-14T05:28:34.357Z,57.97
2022-12-14T05:33:38.292Z,58.40
2022-12-14T05:38:43.548Z,52.05
2022-12-14T05:43:47.545Z,55.22
2022-12-14T05:53:58.465Z,53.83
2022-12-14T05:59:02.701Z,57.17
2022-12-14T06:04:06.751Z,62.58
2022-12-14T06:09:15.733Z,67.93
2022-12-14T06:14:19.855Z,56.63
2022-12-14T06:19:23.864Z,65.53
2022-12-14T06:24:29.230Z,85.90
2022-12-14T06:29:33.304Z,60.72
2022-12-14T06:34:42.144Z,66.07
2022-12-14T06:39:54.091Z,64.07
2022-12-14T06:44:58.441Z,73.82
2022-12-14T06:50:02.355Z,70.38
2022-12-14T06:55:08.888Z,65.40
2022-12-14T07:00:13.523Z,64.10
2022-12-14T07:05:17.968Z,69.30
2022-12-14T07:10:23.473Z,83.20
2022-12-14T07:17:03.785Z,97.40
2022-12-14T07:22:08.103Z,92.85
2022-12-14T07:27:12.020Z,92.30
2022-12-14T07:32:17.462Z,86.93
2022-12-14T07:37:21.714Z,66.88
2022-12-14T07:42:25.574Z,153.40
2022-12-14T07:47:32.012Z,91.85
2022-12-14T07:52:37.711Z,87.20
2022-12-14T08:02:46.770Z,73.88
2022-12-14T08:12:54.593Z,43.50
2022-12-14T08:17:59.979Z,40.63
2022-12-14T08:23:04.690Z,36.28
2022-12-14T08:28:08.575Z,37.35
2022-12-14T08:33:14.016Z,32.75
2022-12-14T08:38:18.011Z,28.48
2022-12-14T08:43:25.111Z,30.75
2022-12-14T08:48:31.023Z,28.70
2022-12-14T08:58:40.519Z,29.95
2022-12-14T09:03:47.276Z,27.63
2022-12-14T09:08:51.823Z,45.78
2022-12-14T09:13:58.338Z,40.75
2022-12-14T09:19:04.055Z,38.42
2022-12-14T09:24:08.077Z,48.83
2022-12-14T09:29:15.005Z,41.80
2022-12-14T09:34:20.397Z,43.13
2022-12-14T09:39:24.436Z,44.17
2022-12-14T09:44:47.459Z,35.70
2022-12-14T09:49:58.421Z,37.40
2022-12-14T09:55:05.486Z,38.70
2022-12-14T10:00:18.139Z,32.95
2022-12-14T10:05:42.295Z,35.15
2022-12-14T10:10:56.723Z,37.83
2022-12-14T10:16:11.701Z,34.80
2022-12-14T10:21:20.355Z,28.48
2022-12-14T10:26:28.127Z,28.38
2022-12-14T10:31:40.725Z,23.38
2022-12-14T10:36:54.160Z,25.13
2022-12-14T10:42:02.778Z,22.55
2022-12-14T10:47:15.421Z,24.98
2022-12-14T10:52:24.176Z,18.30
2022-12-14T10:57:29.159Z,24.45
2022-12-14T11:02:38.173Z,25.57
2022-12-14T11:07:45.907Z,22.67
2022-12-14T11:13:01.543Z,24.33
2022-12-14T11:18:24.395Z,21.17
2022-12-14T11:23:31.667Z,21.45
2022-12-14T11:28:39.232Z,20.85
2022-12-14T11:33:49.896Z,23.55
2022-12-14T11:39:00.389Z,23.30
2022-12-14T11:44:22.887Z,19.25
2022-12-14T11:49:29.235Z,21.40
2022-12-14T11:54:35.157Z,20.05
2022-12-14T11:59:42.252Z,19.95
2022-12-14T12:04:49.870Z,21.38
2022-12-14T12:14:37.036Z,21.83
2022-12-14T12:19:41.654Z,23.85
2022-12-14T12:25:24.084Z,31.67
2022-12-14T12:30:28.666Z,25.52
2022-12-14T12:35:38.340Z,26.48
2022-12-14T12:40:56.461Z,25.13
2022-12-14T12:46:06.368Z,33.70
2022-12-14T12:51:15.120Z,22.75
2022-12-14T12:56:23.944Z,31.30
2022-12-14T13:01:34.662Z,21.55
2022-12-14T13:06:43.012Z,25.50
2022-12-14T13:11:47.840Z,18.15
2022-12-14T13:16:54.993Z,21.63
2022-12-14T13:22:05.239Z,22.33
2022-12-14T13:27:40.699Z,18.73
2022-12-14T13:33:03.028Z,24.30
2022-12-14T13:38:33.694Z,26.33
2022-12-14T13:44:06.542Z,22.20
2022-12-14T13:49:21.536Z,25.02
2022-12-14T13:54:30.395Z,45.60
2022-12-14T13:59:36.810Z,36.42
2022-12-14T14:04:42.873Z,35.53
2022-12-14T14:09:59.926Z,28.77
2022-12-14T14:15:24.351Z,33.90
2022-12-14T14:20:42.933Z,32.25
2022-12-14T14:25:51.594Z,29.73
2022-12-14T14:30:57.805Z,29.80
2022-12-14T14:36:15.138Z,24.17
2022-12-14T14:41:25.425Z,29.23
2022-12-14T14:46:36.620Z,26.83
2022-12-14T14:51:41.977Z,32.47
2022-12-14T14:56:46.437Z,24.10
2022-12-14T15:01:56.033Z,31.15
2022-12-14T15:07:10.039Z,26.15
2022-12-14T15:12:30.968Z,27.67
2022-12-14T15:17:35.227Z,28.50
2022-12-14T15:22:44.267Z,23.95
2022-12-14T15:27:49.129Z,28.55
2022-12-14T15:32:56.568Z,21.97
2022-12-14T15:38:06.249Z,25.75
2022-12-14T15:43:19.335Z,23.27
2022-12-14T15:48:25.509Z,23.35
2022-12-14T15:53:34.285Z,30.20
2022-12-14T15:58:41.004Z,24.08
2022-12-14T16:03:47.859Z,24.25
2022-12-14T16:08:58.422Z,25.08
2022-12-14T16:14:06.562Z,28.38
2022-12-14T16:19:26.413Z,22.13
2022-12-14T16:24:33.062Z,15.05
2022-12-14T16:29:37.008Z,24.25
2022-12-14T16:34:46.794Z,16.95
2022-12-14T16:39:52.862Z,15.60
2022-12-14T16:44:56.852Z,19.95
2022-12-14T16:50:00.869Z,18.98
2022-12-14T16:55:13.199Z,22.17
2022-12-14T17:00:23.265Z,20.73
2022-12-14T17:05:33.045Z,21.92
2022-12-14T17:10:39.246Z,21.92
2022-12-14T17:15:56.791Z,24.85
2022-12-14T17:21:01.753Z,24.83
2022-12-14T17:26:07.321Z,25.93
2022-12-14T17:31:12.373Z,30.00
2022-12-14T17:36:16.464Z,40.60
2022-12-14T17:41:26.723Z,30.13
2022-12-14T17:46:30.910Z,24.02
2022-12-14T17:51:42.036Z,23.08
2022-12-14T17:56:48.061Z,31.05
2022-12-14T18:01:52.155Z,33.00
2022-12-14T18:06:56.259Z,30.35
2022-12-14T18:12:22.651Z,32.75
2022-12-14T18:17:25.615Z,23.27
2022-12-14T18:22:29.732Z,23.38
2022-12-14T18:27:35.080Z,22.70
2022-12-14T18:32:38.988Z,29.08
2022-12-14T18:37:42.964Z,34.13
2022-12-14T18:42:55.093Z,32.30
2022-12-14T18:48:00.913Z,29.77
2022-12-14T18:58:16.502Z,39.85
2022-12-14T19:03:20.973Z,41.13
2022-12-14T19:08:25.439Z,32.50
2022-12-14T19:13:31.559Z,34.03
2022-12-14T19:18:36.597Z,32.22
2022-12-14T19:23:41.864Z,33.43
2022-12-14T19:28:47.770Z,32.33
2022-12-14T19:33:51.895Z,28.25
2022-12-14T19:38:56.290Z,33.08
2022-12-14T19:44:01.819Z,29.35
2022-12-14T19:49:07.833Z,31.33
2022-12-14T19:54:12.118Z,29.58
2022-12-14T19:59:18.038Z,28.08
2022-12-14T20:04:22.437Z,32.30
2022-12-14T20:09:26.842Z,29.80
2022-12-14T20:14:32.385Z,27.20
2022-12-14T20:19:37.227Z,28.23
2022-12-14T20:24:41.342Z,25.45
2022-12-14T20:29:46.739Z,21.13
2022-12-14T20:34:50.786Z,22.73
2022-12-14T20:39:54.716Z,23.75
2022-12-14T20:45:05.279Z,36.47
2022-12-14T20:50:10.900Z,43.88
2022-12-14T20:55:14.988Z,31.55
2022-12-14T21:00:20.557Z,24.00
2022-12-14T21:05:24.935Z,26.90
2022-12-14T21:10:29.307Z,20.77
2022-12-14T21:15:35.470Z,24.83
2022-12-14T21:20:39.442Z,25.50
2022-12-14T21:25:44.134Z,25.50
2022-12-14T21:30:50.043Z,27.20
2022-12-14T21:35:54.121Z,22.67
2022-12-14T21:41:15.263Z,26.83
2022-12-14T21:46:23.568Z,24.92
2022-12-14T21:51:29.734Z,28.73
2022-12-14T21:56:53.330Z,25.38
2022-12-14T22:02:00.501Z,28.50
2022-12-14T22:07:05.083Z,27.88
2022-12-14T22:12:09.684Z,27.85
2022-12-14T22:17:15.865Z,25.98
2022-12-14T22:22:20.038Z,29.23
2022-12-14T22:27:24.066Z,28.85
2022-12-14T22:32:29.620Z,27.65
2022-12-14T22:37:33.766Z,29.52
2022-12-14T22:42:37.806Z,29.75
2022-12-14T22:47:43.408Z,35.50
2022-12-14T22:52:49.532Z,29.38
2022-12-14T22:57:56.187Z,47.27
2022-12-14T23:03:01.992Z,55.03
2022-12-14T23:08:07.006Z,52.15
2022-12-14T23:13:29.152Z,58.50
2022-12-14T23:18:52.867Z,60.67
2022-12-14T23:24:14.476Z,56.80
2022-12-14T23:29:36.247Z,48.33
2022-12-14T23:34:59.110Z,46.45
2022-12-14T23:40:20.666Z,54.67
2022-12-14T23:45:42.404Z,52.00
2022-12-14T23:51:05.176Z,49.53
2022-12-14T23:56:27.015Z,50.00
